SAVC/CRD METAR and TAF weather

Enter ICAO airport designator
Station Type Date Time Source
SAVC METAR 2020/09/18 19:00 UTC NOAA

SAVC 181900Z VRB06KT 9999 BKN045 10/M01 Q1014


Station Type Date Time Source
SAVC Decoded METAR 2020/09/18 19:00 UTC NOAA

Comodoro Rivadavia Aerodrome, Argentina (SAVC) 45-47S 067-30W 46M
Sep 18, 2020 - 03:00 PM EDT / 2020.09.18 1900 UTC
Wind: Variable at 7 MPH (6 KT):0
Visibility: greater than 7 mile(s):0
Sky conditions: mostly cloudy
Temperature: 50 F (10 C)
Dew Point: 30 F (-1 C)
Relative Humidity: 46%
Pressure (altimeter): 29.94 in. Hg (1014 hPa)
ob: SAVC 181900Z VRB06KT 9999 BKN045 10/M01 Q1014
cycle: 19

Station Type Date Time Source
SAVC TAF 2020/09/18 18:03 UTC NOAA

TAF TAF SAVC 181700Z 1818/1918 23020G30KT 9999 BKN045 TX12/1818Z TN04/1811Z
TEMPO 1818/1822 23020G35KT SHRASN
BECMG 1823/1901 25015KT CAVOK

Example: see airport list